sensor_id;sensor_type;location;lat;lon;timestamp;P1;durP1;ratioP1;P2;durP2;ratioP2
48487;SDS011;34289;48.572;13.378;2023-03-23T00:01:11;7.10;;;4.30;;
48487;SDS011;34289;48.572;13.378;2023-03-23T00:03:42;4.93;;;3.95;;
48487;SDS011;34289;48.572;13.378;2023-03-23T00:06:07;8.20;;;4.05;;
48487;SDS011;34289;48.572;13.378;2023-03-23T00:08:34;6.05;;;4.05;;
48487;SDS011;34289;48.572;13.378;2023-03-23T00:11:10;5.30;;;4.35;;
48487;SDS011;34289;48.572;13.378;2023-03-23T00:13:40;4.60;;;3.58;;
48487;SDS011;34289;48.572;13.378;2023-03-23T00:16:07;4.65;;;3.78;;
48487;SDS011;34289;48.572;13.378;2023-03-23T00:18:49;5.35;;;3.88;;
48487;SDS011;34289;48.572;13.378;2023-03-23T00:21:19;5.50;;;3.80;;
48487;SDS011;34289;48.572;13.378;2023-03-23T00:23:50;7.25;;;4.38;;
48487;SDS011;34289;48.572;13.378;2023-03-23T00:26:17;8.98;;;4.65;;
48487;SDS011;34289;48.572;13.378;2023-03-23T00:28:43;5.25;;;4.10;;
48487;SDS011;34289;48.572;13.378;2023-03-23T00:31:11;4.82;;;3.72;;
48487;SDS011;34289;48.572;13.378;2023-03-23T00:33:37;5.32;;;3.88;;
48487;SDS011;34289;48.572;13.378;2023-03-23T00:36:06;5.82;;;4.63;;
48487;SDS011;34289;48.572;13.378;2023-03-23T00:38:33;7.15;;;3.60;;
48487;SDS011;34289;48.572;13.378;2023-03-23T00:41:00;6.20;;;5.05;;
48487;SDS011;34289;48.572;13.378;2023-03-23T00:43:28;6.20;;;4.25;;
48487;SDS011;34289;48.572;13.378;2023-03-23T00:45:54;5.28;;;3.58;;
48487;SDS011;34289;48.572;13.378;2023-03-23T00:48:26;8.20;;;4.20;;
48487;SDS011;34289;48.572;13.378;2023-03-23T00:50:52;5.55;;;4.35;;
48487;SDS011;34289;48.572;13.378;2023-03-23T00:53:18;4.22;;;3.58;;
48487;SDS011;34289;48.572;13.378;2023-03-23T00:55:45;6.35;;;3.47;;
48487;SDS011;34289;48.572;13.378;2023-03-23T00:58:11;19.40;;;4.80;;
48487;SDS011;34289;48.572;13.378;2023-03-23T01:00:38;7.82;;;4.22;;
48487;SDS011;34289;48.572;13.378;2023-03-23T01:03:04;6.70;;;3.70;;
48487;SDS011;34289;48.572;13.378;2023-03-23T01:05:40;6.25;;;4.35;;
48487;SDS011;34289;48.572;13.378;2023-03-23T01:08:06;9.07;;;4.50;;
48487;SDS011;34289;48.572;13.378;2023-03-23T01:10:32;5.25;;;3.38;;
48487;SDS011;34289;48.572;13.378;2023-03-23T01:13:01;7.20;;;4.18;;
48487;SDS011;34289;48.572;13.378;2023-03-23T01:15:27;6.18;;;4.15;;
48487;SDS011;34289;48.572;13.378;2023-03-23T01:17:55;5.80;;;4.38;;
48487;SDS011;34289;48.572;13.378;2023-03-23T01:20:21;8.70;;;4.10;;
48487;SDS011;34289;48.572;13.378;2023-03-23T01:22:47;5.70;;;4.22;;
48487;SDS011;34289;48.572;13.378;2023-03-23T01:25:13;7.55;;;4.75;;
48487;SDS011;34289;48.572;13.378;2023-03-23T01:27:39;5.95;;;4.20;;
48487;SDS011;34289;48.572;13.378;2023-03-23T01:30:06;6.32;;;3.42;;
48487;SDS011;34289;48.572;13.378;2023-03-23T01:32:33;10.02;;;4.07;;
48487;SDS011;34289;48.572;13.378;2023-03-23T01:35:00;6.00;;;4.65;;
48487;SDS011;34289;48.572;13.378;2023-03-23T01:37:25;7.72;;;4.03;;
48487;SDS011;34289;48.572;13.378;2023-03-23T01:39:52;4.30;;;3.40;;
48487;SDS011;34289;48.572;13.378;2023-03-23T01:42:20;8.55;;;4.75;;
48487;SDS011;34289;48.572;13.378;2023-03-23T01:47:19;4.72;;;4.13;;
48487;SDS011;34289;48.572;13.378;2023-03-23T01:49:48;6.60;;;4.13;;
48487;SDS011;34289;48.572;13.378;2023-03-23T01:52:33;5.38;;;3.90;;
48487;SDS011;34289;48.572;13.378;2023-03-23T01:55:01;9.65;;;4.43;;
48487;SDS011;34289;48.572;13.378;2023-03-23T01:57:28;6.78;;;4.47;;
48487;SDS011;34289;48.572;13.378;2023-03-23T01:59:55;5.35;;;4.47;;
48487;SDS011;34289;48.572;13.378;2023-03-23T02:02:24;8.73;;;4.65;;
48487;SDS011;34289;48.572;13.378;2023-03-23T02:04:51;12.40;;;4.80;;
48487;SDS011;34289;48.572;13.378;2023-03-23T02:07:20;4.10;;;3.28;;
48487;SDS011;34289;48.572;13.378;2023-03-23T02:09:46;6.43;;;3.88;;
48487;SDS011;34289;48.572;13.378;2023-03-23T02:12:13;8.13;;;4.57;;
48487;SDS011;34289;48.572;13.378;2023-03-23T02:14:38;7.32;;;3.97;;
48487;SDS011;34289;48.572;13.378;2023-03-23T02:17:06;4.57;;;3.92;;
48487;SDS011;34289;48.572;13.378;2023-03-23T02:34:05;5.72;;;4.07;;
48487;SDS011;34289;48.572;13.378;2023-03-23T02:36:38;6.15;;;3.85;;
48487;SDS011;34289;48.572;13.378;2023-03-23T02:41:44;4.55;;;4.03;;
48487;SDS011;34289;48.572;13.378;2023-03-23T02:44:14;9.27;;;4.63;;
48487;SDS011;34289;48.572;13.378;2023-03-23T02:46:41;8.93;;;4.90;;
48487;SDS011;34289;48.572;13.378;2023-03-23T02:49:08;9.38;;;5.00;;
48487;SDS011;34289;48.572;13.378;2023-03-23T02:51:36;9.90;;;4.13;;
48487;SDS011;34289;48.572;13.378;2023-03-23T02:54:03;5.60;;;4.60;;
48487;SDS011;34289;48.572;13.378;2023-03-23T02:56:30;6.25;;;4.20;;
48487;SDS011;34289;48.572;13.378;2023-03-23T02:58:58;4.95;;;4.05;;
48487;SDS011;34289;48.572;13.378;2023-03-23T03:03:57;6.00;;;4.55;;
48487;SDS011;34289;48.572;13.378;2023-03-23T03:11:41;6.60;;;4.70;;
48487;SDS011;34289;48.572;13.378;2023-03-23T03:14:13;7.10;;;4.93;;
48487;SDS011;34289;48.572;13.378;2023-03-23T03:17:00;5.72;;;4.55;;
48487;SDS011;34289;48.572;13.378;2023-03-23T03:19:50;5.07;;;4.13;;
48487;SDS011;34289;48.572;13.378;2023-03-23T03:22:21;6.53;;;4.55;;
48487;SDS011;34289;48.572;13.378;2023-03-23T03:24:48;6.15;;;4.50;;
48487;SDS011;34289;48.572;13.378;2023-03-23T03:27:17;5.72;;;4.78;;
48487;SDS011;34289;48.572;13.378;2023-03-23T03:29:46;5.50;;;4.68;;
48487;SDS011;34289;48.572;13.378;2023-03-23T03:32:16;6.05;;;4.68;;
48487;SDS011;34289;48.572;13.378;2023-03-23T03:34:46;6.78;;;4.35;;
48487;SDS011;34289;48.572;13.378;2023-03-23T03:37:12;10.05;;;4.80;;
48487;SDS011;34289;48.572;13.378;2023-03-23T03:39:39;5.57;;;5.00;;
48487;SDS011;34289;48.572;13.378;2023-03-23T03:42:05;7.35;;;5.20;;
48487;SDS011;34289;48.572;13.378;2023-03-23T03:44:31;6.40;;;4.20;;
48487;SDS011;34289;48.572;13.378;2023-03-23T03:46:58;4.70;;;4.10;;
48487;SDS011;34289;48.572;13.378;2023-03-23T03:49:23;7.43;;;4.35;;
48487;SDS011;34289;48.572;13.378;2023-03-23T03:51:50;5.15;;;4.30;;
48487;SDS011;34289;48.572;13.378;2023-03-23T03:54:16;5.05;;;4.15;;
48487;SDS011;34289;48.572;13.378;2023-03-23T03:56:42;6.85;;;4.57;;
48487;SDS011;34289;48.572;13.378;2023-03-23T03:59:08;7.00;;;5.00;;
48487;SDS011;34289;48.572;13.378;2023-03-23T04:01:35;8.85;;;4.53;;
48487;SDS011;34289;48.572;13.378;2023-03-23T04:04:02;7.75;;;4.90;;
48487;SDS011;34289;48.572;13.378;2023-03-23T04:06:29;8.43;;;5.95;;
48487;SDS011;34289;48.572;13.378;2023-03-23T04:08:55;6.00;;;4.72;;
48487;SDS011;34289;48.572;13.378;2023-03-23T04:11:24;7.85;;;5.30;;
48487;SDS011;34289;48.572;13.378;2023-03-23T04:13:51;4.85;;;4.30;;
48487;SDS011;34289;48.572;13.378;2023-03-23T04:16:16;6.28;;;5.18;;
48487;SDS011;34289;48.572;13.378;2023-03-23T04:18:42;5.22;;;4.25;;
48487;SDS011;34289;48.572;13.378;2023-03-23T04:21:08;7.10;;;4.30;;
48487;SDS011;34289;48.572;13.378;2023-03-23T04:23:35;6.82;;;4.57;;
48487;SDS011;34289;48.572;13.378;2023-03-23T04:26:02;6.60;;;5.28;;
48487;SDS011;34289;48.572;13.378;2023-03-23T04:28:28;7.22;;;5.63;;
48487;SDS011;34289;48.572;13.378;2023-03-23T04:30:54;6.65;;;5.75;;
48487;SDS011;34289;48.572;13.378;2023-03-23T04:33:21;7.63;;;4.75;;
48487;SDS011;34289;48.572;13.378;2023-03-23T04:35:50;6.80;;;4.38;;
48487;SDS011;34289;48.572;13.378;2023-03-23T04:38:16;6.30;;;5.15;;
48487;SDS011;34289;48.572;13.378;2023-03-23T04:40:45;5.70;;;4.80;;
48487;SDS011;34289;48.572;13.378;2023-03-23T04:43:11;7.05;;;4.95;;
48487;SDS011;34289;48.572;13.378;2023-03-23T04:45:37;6.53;;;5.18;;
48487;SDS011;34289;48.572;13.378;2023-03-23T04:48:06;7.03;;;4.70;;
48487;SDS011;34289;48.572;13.378;2023-03-23T04:50:32;9.32;;;5.65;;
48487;SDS011;34289;48.572;13.378;2023-03-23T04:52:59;7.82;;;6.60;;
48487;SDS011;34289;48.572;13.378;2023-03-23T04:55:29;8.07;;;5.13;;
48487;SDS011;34289;48.572;13.378;2023-03-23T04:58:04;8.13;;;5.82;;
48487;SDS011;34289;48.572;13.378;2023-03-23T05:00:32;8.80;;;6.13;;
48487;SDS011;34289;48.572;13.378;2023-03-23T05:02:58;10.57;;;6.97;;
48487;SDS011;34289;48.572;13.378;2023-03-23T05:05:26;13.60;;;7.03;;
48487;SDS011;34289;48.572;13.378;2023-03-23T05:07:52;8.27;;;6.85;;
48487;SDS011;34289;48.572;13.378;2023-03-23T05:10:18;10.95;;;6.50;;
48487;SDS011;34289;48.572;13.378;2023-03-23T05:12:44;10.05;;;6.93;;
48487;SDS011;34289;48.572;13.378;2023-03-23T05:15:11;9.23;;;7.95;;
48487;SDS011;34289;48.572;13.378;2023-03-23T05:17:37;6.97;;;5.88;;
48487;SDS011;34289;48.572;13.378;2023-03-23T05:20:04;9.52;;;6.00;;
48487;SDS011;34289;48.572;13.378;2023-03-23T05:22:39;6.78;;;5.35;;
48487;SDS011;34289;48.572;13.378;2023-03-23T05:25:06;8.43;;;5.82;;
48487;SDS011;34289;48.572;13.378;2023-03-23T05:27:36;6.07;;;4.93;;
48487;SDS011;34289;48.572;13.378;2023-03-23T05:30:03;8.93;;;5.97;;
48487;SDS011;34289;48.572;13.378;2023-03-23T05:32:30;6.65;;;5.85;;
48487;SDS011;34289;48.572;13.378;2023-03-23T05:34:59;6.35;;;5.22;;
48487;SDS011;34289;48.572;13.378;2023-03-23T05:37:25;8.35;;;6.28;;
48487;SDS011;34289;48.572;13.378;2023-03-23T05:39:57;7.75;;;6.22;;
48487;SDS011;34289;48.572;13.378;2023-03-23T05:42:26;6.18;;;5.05;;
48487;SDS011;34289;48.572;13.378;2023-03-23T05:44:51;8.85;;;5.18;;
48487;SDS011;34289;48.572;13.378;2023-03-23T05:47:18;6.47;;;4.85;;
48487;SDS011;34289;48.572;13.378;2023-03-23T05:49:43;9.93;;;5.10;;
48487;SDS011;34289;48.572;13.378;2023-03-23T05:52:09;7.18;;;5.47;;
48487;SDS011;34289;48.572;13.378;2023-03-23T05:54:35;10.68;;;6.15;;
48487;SDS011;34289;48.572;13.378;2023-03-23T05:57:02;14.57;;;6.70;;
48487;SDS011;34289;48.572;13.378;2023-03-23T05:59:28;8.38;;;6.68;;
48487;SDS011;34289;48.572;13.378;2023-03-23T06:01:53;8.07;;;6.50;;
48487;SDS011;34289;48.572;13.378;2023-03-23T06:04:20;11.00;;;7.50;;
48487;SDS011;34289;48.572;13.378;2023-03-23T06:06:49;10.35;;;6.35;;
48487;SDS011;34289;48.572;13.378;2023-03-23T06:09:16;8.48;;;5.78;;
48487;SDS011;34289;48.572;13.378;2023-03-23T06:11:42;7.70;;;5.60;;
48487;SDS011;34289;48.572;13.378;2023-03-23T06:14:09;8.05;;;5.88;;
48487;SDS011;34289;48.572;13.378;2023-03-23T06:16:34;10.55;;;7.30;;
48487;SDS011;34289;48.572;13.378;2023-03-23T06:19:00;6.38;;;5.63;;
48487;SDS011;34289;48.572;13.378;2023-03-23T06:21:28;7.38;;;5.80;;
48487;SDS011;34289;48.572;13.378;2023-03-23T06:23:57;8.00;;;5.97;;
48487;SDS011;34289;48.572;13.378;2023-03-23T06:26:26;7.57;;;5.95;;
48487;SDS011;34289;48.572;13.378;2023-03-23T06:28:57;7.93;;;6.47;;
48487;SDS011;34289;48.572;13.378;2023-03-23T06:31:23;9.10;;;7.32;;
48487;SDS011;34289;48.572;13.378;2023-03-23T06:33:49;11.43;;;7.90;;
48487;SDS011;34289;48.572;13.378;2023-03-23T06:36:16;13.38;;;8.95;;
48487;SDS011;34289;48.572;13.378;2023-03-23T06:38:42;11.23;;;8.52;;
48487;SDS011;34289;48.572;13.378;2023-03-23T06:41:08;12.25;;;8.65;;
48487;SDS011;34289;48.572;13.378;2023-03-23T06:43:34;8.30;;;7.38;;
48487;SDS011;34289;48.572;13.378;2023-03-23T06:46:02;13.75;;;8.10;;
48487;SDS011;34289;48.572;13.378;2023-03-23T06:48:28;11.38;;;7.35;;
48487;SDS011;34289;48.572;13.378;2023-03-23T06:50:54;9.38;;;7.35;;
48487;SDS011;34289;48.572;13.378;2023-03-23T06:53:20;11.93;;;7.80;;
48487;SDS011;34289;48.572;13.378;2023-03-23T06:55:46;11.88;;;7.97;;
48487;SDS011;34289;48.572;13.378;2023-03-23T06:58:12;8.45;;;6.95;;
48487;SDS011;34289;48.572;13.378;2023-03-23T07:00:38;16.15;;;7.78;;
48487;SDS011;34289;48.572;13.378;2023-03-23T07:03:05;10.18;;;6.90;;
48487;SDS011;34289;48.572;13.378;2023-03-23T07:05:32;9.98;;;7.07;;
48487;SDS011;34289;48.572;13.378;2023-03-23T07:07:59;12.73;;;8.00;;
48487;SDS011;34289;48.572;13.378;2023-03-23T07:10:26;10.77;;;7.40;;
48487;SDS011;34289;48.572;13.378;2023-03-23T07:12:52;10.68;;;6.75;;
48487;SDS011;34289;48.572;13.378;2023-03-23T07:15:18;12.18;;;6.60;;
48487;SDS011;34289;48.572;13.378;2023-03-23T07:17:43;15.68;;;7.40;;
48487;SDS011;34289;48.572;13.378;2023-03-23T07:20:10;11.75;;;7.63;;
48487;SDS011;34289;48.572;13.378;2023-03-23T07:22:36;8.75;;;7.70;;
48487;SDS011;34289;48.572;13.378;2023-03-23T07:25:03;9.63;;;6.78;;
48487;SDS011;34289;48.572;13.378;2023-03-23T07:27:29;8.82;;;7.05;;
48487;SDS011;34289;48.572;13.378;2023-03-23T07:29:55;10.00;;;6.50;;
48487;SDS011;34289;48.572;13.378;2023-03-23T07:32:22;15.13;;;7.57;;
48487;SDS011;34289;48.572;13.378;2023-03-23T07:34:48;11.02;;;6.72;;
48487;SDS011;34289;48.572;13.378;2023-03-23T07:37:13;12.38;;;7.53;;
48487;SDS011;34289;48.572;13.378;2023-03-23T07:39:39;9.60;;;6.85;;
48487;SDS011;34289;48.572;13.378;2023-03-23T07:42:05;10.13;;;6.68;;
48487;SDS011;34289;48.572;13.378;2023-03-23T07:44:32;10.98;;;6.60;;
48487;SDS011;34289;48.572;13.378;2023-03-23T07:46:58;9.07;;;6.70;;
48487;SDS011;34289;48.572;13.378;2023-03-23T07:49:23;10.63;;;6.55;;
48487;SDS011;34289;48.572;13.378;2023-03-23T07:51:49;8.27;;;6.47;;
48487;SDS011;34289;48.572;13.378;2023-03-23T07:54:15;10.85;;;6.40;;
48487;SDS011;34289;48.572;13.378;2023-03-23T07:56:41;9.07;;;6.38;;
48487;SDS011;34289;48.572;13.378;2023-03-23T07:59:08;9.60;;;6.05;;
48487;SDS011;34289;48.572;13.378;2023-03-23T08:01:35;12.50;;;6.40;;
48487;SDS011;34289;48.572;13.378;2023-03-23T08:04:03;14.65;;;6.22;;
48487;SDS011;34289;48.572;13.378;2023-03-23T08:06:31;11.68;;;6.20;;
48487;SDS011;34289;48.572;13.378;2023-03-23T08:08:58;7.57;;;6.03;;
48487;SDS011;34289;48.572;13.378;2023-03-23T08:11:25;11.32;;;6.18;;
48487;SDS011;34289;48.572;13.378;2023-03-23T08:13:51;7.57;;;5.85;;
48487;SDS011;34289;48.572;13.378;2023-03-23T08:16:18;9.35;;;5.85;;
48487;SDS011;34289;48.572;13.378;2023-03-23T08:18:44;8.10;;;5.07;;
48487;SDS011;34289;48.572;13.378;2023-03-23T08:21:11;6.18;;;5.18;;
48487;SDS011;34289;48.572;13.378;2023-03-23T08:23:37;11.55;;;5.40;;
48487;SDS011;34289;48.572;13.378;2023-03-23T08:26:04;6.70;;;5.22;;
48487;SDS011;34289;48.572;13.378;2023-03-23T08:28:31;7.50;;;4.80;;
48487;SDS011;34289;48.572;13.378;2023-03-23T08:31:07;6.60;;;4.80;;
48487;SDS011;34289;48.572;13.378;2023-03-23T08:33:35;5.55;;;4.30;;
48487;SDS011;34289;48.572;13.378;2023-03-23T08:36:01;10.57;;;4.65;;
48487;SDS011;34289;48.572;13.378;2023-03-23T08:38:28;6.22;;;3.95;;
48487;SDS011;34289;48.572;13.378;2023-03-23T08:41:00;8.45;;;5.25;;
48487;SDS011;34289;48.572;13.378;2023-03-23T08:43:29;8.35;;;5.53;;
48487;SDS011;34289;48.572;13.378;2023-03-23T08:45:57;5.90;;;5.30;;
48487;SDS011;34289;48.572;13.378;2023-03-23T08:48:23;6.28;;;4.80;;
48487;SDS011;34289;48.572;13.378;2023-03-23T08:50:49;5.70;;;4.78;;
48487;SDS011;34289;48.572;13.378;2023-03-23T08:53:17;7.90;;;5.38;;
48487;SDS011;34289;48.572;13.378;2023-03-23T08:55:43;9.15;;;5.53;;
48487;SDS011;34289;48.572;13.378;2023-03-23T08:58:09;6.10;;;5.45;;
48487;SDS011;34289;48.572;13.378;2023-03-23T09:00:35;9.95;;;6.25;;
48487;SDS011;34289;48.572;13.378;2023-03-23T09:03:00;8.93;;;5.85;;
48487;SDS011;34289;48.572;13.378;2023-03-23T09:05:28;8.70;;;6.32;;
48487;SDS011;34289;48.572;13.378;2023-03-23T09:07:55;9.13;;;6.18;;
48487;SDS011;34289;48.572;13.378;2023-03-23T09:10:24;13.18;;;6.70;;
48487;SDS011;34289;48.572;13.378;2023-03-23T09:12:51;7.65;;;6.32;;
48487;SDS011;34289;48.572;13.378;2023-03-23T09:15:18;7.32;;;6.57;;
48487;SDS011;34289;48.572;13.378;2023-03-23T09:17:45;7.43;;;5.60;;
48487;SDS011;34289;48.572;13.378;2023-03-23T09:20:14;7.45;;;5.57;;
48487;SDS011;34289;48.572;13.378;2023-03-23T09:22:41;8.43;;;6.00;;
48487;SDS011;34289;48.572;13.378;2023-03-23T09:25:09;11.10;;;6.13;;
48487;SDS011;34289;48.572;13.378;2023-03-23T09:27:36;9.55;;;6.53;;
48487;SDS011;34289;48.572;13.378;2023-03-23T09:30:08;9.57;;;6.75;;
48487;SDS011;34289;48.572;13.378;2023-03-23T09:32:36;8.38;;;5.80;;
48487;SDS011;34289;48.572;13.378;2023-03-23T09:35:03;7.90;;;6.53;;
48487;SDS011;34289;48.572;13.378;2023-03-23T09:37:33;11.32;;;6.40;;
48487;SDS011;34289;48.572;13.378;2023-03-23T09:40:01;9.48;;;6.50;;
48487;SDS011;34289;48.572;13.378;2023-03-23T09:42:37;12.43;;;7.18;;
48487;SDS011;34289;48.572;13.378;2023-03-23T09:45:08;9.30;;;6.22;;
48487;SDS011;34289;48.572;13.378;2023-03-23T09:50:45;7.03;;;5.93;;
48487;SDS011;34289;48.572;13.378;2023-03-23T09:55:48;10.68;;;6.32;;
48487;SDS011;34289;48.572;13.378;2023-03-23T09:58:20;8.63;;;6.43;;
48487;SDS011;34289;48.572;13.378;2023-03-23T10:00:59;13.05;;;6.10;;
48487;SDS011;34289;48.572;13.378;2023-03-23T10:03:40;10.98;;;5.57;;
48487;SDS011;34289;48.572;13.378;2023-03-23T10:06:16;14.85;;;6.45;;
48487;SDS011;34289;48.572;13.378;2023-03-23T10:08:54;8.07;;;5.93;;
48487;SDS011;34289;48.572;13.378;2023-03-23T10:19:33;7.35;;;5.35;;
48487;SDS011;34289;48.572;13.378;2023-03-23T10:22:13;9.80;;;6.55;;
48487;SDS011;34289;48.572;13.378;2023-03-23T10:27:33;7.53;;;6.30;;
48487;SDS011;34289;48.572;13.378;2023-03-23T10:30:16;12.75;;;11.65;;
48487;SDS011;34289;48.572;13.378;2023-03-23T10:32:51;11.60;;;5.75;;
48487;SDS011;34289;48.572;13.378;2023-03-23T10:35:22;6.85;;;5.30;;
48487;SDS011;34289;48.572;13.378;2023-03-23T10:38:01;7.25;;;5.28;;
48487;SDS011;34289;48.572;13.378;2023-03-23T10:40:34;6.97;;;5.60;;
48487;SDS011;34289;48.572;13.378;2023-03-23T10:43:10;9.88;;;5.68;;
48487;SDS011;34289;48.572;13.378;2023-03-23T10:45:36;9.43;;;6.60;;
48487;SDS011;34289;48.572;13.378;2023-03-23T10:50:32;6.70;;;4.95;;
48487;SDS011;34289;48.572;13.378;2023-03-23T10:53:00;8.75;;;5.88;;
48487;SDS011;34289;48.572;13.378;2023-03-23T10:55:37;7.28;;;4.97;;
48487;SDS011;34289;48.572;13.378;2023-03-23T10:58:05;10.35;;;5.20;;
48487;SDS011;34289;48.572;13.378;2023-03-23T11:00:46;12.15;;;4.43;;
48487;SDS011;34289;48.572;13.378;2023-03-23T11:08:21;10.68;;;5.80;;
48487;SDS011;34289;48.572;13.378;2023-03-23T11:13:15;6.22;;;5.18;;
48487;SDS011;34289;48.572;13.378;2023-03-23T11:15:43;7.65;;;5.32;;
48487;SDS011;34289;48.572;13.378;2023-03-23T11:21:03;8.60;;;5.13;;
48487;SDS011;34289;48.572;13.378;2023-03-23T11:23:35;7.57;;;4.95;;
48487;SDS011;34289;48.572;13.378;2023-03-23T11:31:17;8.95;;;5.07;;
48487;SDS011;34289;48.572;13.378;2023-03-23T11:33:50;8.73;;;4.80;;
48487;SDS011;34289;48.572;13.378;2023-03-23T11:36:42;10.27;;;4.80;;
48487;SDS011;34289;48.572;13.378;2023-03-23T11:39:20;9.15;;;5.05;;
48487;SDS011;34289;48.572;13.378;2023-03-23T11:41:47;4.53;;;3.08;;
48487;SDS011;34289;48.572;13.378;2023-03-23T11:44:13;6.38;;;3.60;;
48487;SDS011;34289;48.572;13.378;2023-03-23T11:49:25;4.10;;;2.40;;
48487;SDS011;34289;48.572;13.378;2023-03-23T11:52:00;5.35;;;2.60;;
48487;SDS011;34289;48.572;13.378;2023-03-23T11:54:50;3.00;;;2.30;;
48487;SDS011;34289;48.572;13.378;2023-03-23T11:57:27;3.90;;;2.15;;
48487;SDS011;34289;48.572;13.378;2023-03-23T11:59:55;3.60;;;2.15;;
48487;SDS011;34289;48.572;13.378;2023-03-23T12:05:30;2.80;;;2.20;;
48487;SDS011;34289;48.572;13.378;2023-03-23T12:08:34;4.25;;;1.88;;
48487;SDS011;34289;48.572;13.378;2023-03-23T12:35:22;5.38;;;1.83;;
48487;SDS011;34289;48.572;13.378;2023-03-23T12:48:46;7.30;;;2.47;;
48487;SDS011;34289;48.572;13.378;2023-03-23T12:51:51;1.98;;;1.65;;
48487;SDS011;34289;48.572;13.378;2023-03-23T13:00:07;3.05;;;1.88;;
48487;SDS011;34289;48.572;13.378;2023-03-23T13:02:43;5.78;;;2.20;;
48487;SDS011;34289;48.572;13.378;2023-03-23T13:07:54;3.92;;;1.60;;
48487;SDS011;34289;48.572;13.378;2023-03-23T13:13:46;5.88;;;1.90;;
48487;SDS011;34289;48.572;13.378;2023-03-23T13:19:51;2.08;;;1.63;;
48487;SDS011;34289;48.572;13.378;2023-03-23T13:22:28;2.57;;;2.00;;
48487;SDS011;34289;48.572;13.378;2023-03-23T13:25:06;7.63;;;2.08;;
48487;SDS011;34289;48.572;13.378;2023-03-23T13:27:38;4.05;;;2.00;;
48487;SDS011;34289;48.572;13.378;2023-03-23T13:30:04;3.47;;;1.70;;
48487;SDS011;34289;48.572;13.378;2023-03-23T13:32:42;5.90;;;2.15;;
48487;SDS011;34289;48.572;13.378;2023-03-23T13:35:13;4.38;;;1.60;;
48487;SDS011;34289;48.572;13.378;2023-03-23T13:37:46;7.93;;;2.10;;
48487;SDS011;34289;48.572;13.378;2023-03-23T13:42:53;2.90;;;1.67;;
48487;SDS011;34289;48.572;13.378;2023-03-23T13:48:18;8.10;;;1.75;;
48487;SDS011;34289;48.572;13.378;2023-03-23T13:50:59;3.42;;;1.80;;
48487;SDS011;34289;48.572;13.378;2023-03-23T13:53:46;28.33;;;3.97;;
48487;SDS011;34289;48.572;13.378;2023-03-23T13:56:17;22.45;;;4.78;;
48487;SDS011;34289;48.572;13.378;2023-03-23T13:58:45;8.43;;;2.17;;
48487;SDS011;34289;48.572;13.378;2023-03-23T14:01:19;5.35;;;2.40;;
48487;SDS011;34289;48.572;13.378;2023-03-23T14:03:58;3.35;;;2.13;;
48487;SDS011;34289;48.572;13.378;2023-03-23T14:06:25;26.13;;;5.55;;
48487;SDS011;34289;48.572;13.378;2023-03-23T14:09:03;47.67;;;8.30;;
48487;SDS011;34289;48.572;13.378;2023-03-23T14:14:20;6.05;;;2.72;;
48487;SDS011;34289;48.572;13.378;2023-03-23T14:19:54;4.15;;;2.50;;
48487;SDS011;34289;48.572;13.378;2023-03-23T14:22:32;5.47;;;2.15;;
48487;SDS011;34289;48.572;13.378;2023-03-23T14:27:37;7.38;;;2.90;;
48487;SDS011;34289;48.572;13.378;2023-03-23T14:30:05;5.93;;;2.78;;
48487;SDS011;34289;48.572;13.378;2023-03-23T14:32:33;5.25;;;3.20;;
48487;SDS011;34289;48.572;13.378;2023-03-23T14:35:01;6.25;;;3.15;;
48487;SDS011;34289;48.572;13.378;2023-03-23T14:37:31;12.35;;;3.70;;
48487;SDS011;34289;48.572;13.378;2023-03-23T14:40:00;17.60;;;4.55;;
48487;SDS011;34289;48.572;13.378;2023-03-23T14:42:31;7.85;;;3.03;;
48487;SDS011;34289;48.572;13.378;2023-03-23T14:44:59;5.82;;;2.72;;
48487;SDS011;34289;48.572;13.378;2023-03-23T14:47:29;5.32;;;2.60;;
48487;SDS011;34289;48.572;13.378;2023-03-23T14:50:01;4.47;;;2.42;;
48487;SDS011;34289;48.572;13.378;2023-03-23T14:52:35;6.35;;;3.78;;
48487;SDS011;34289;48.572;13.378;2023-03-23T14:55:13;7.60;;;2.65;;
48487;SDS011;34289;48.572;13.378;2023-03-23T14:57:42;7.40;;;2.78;;
48487;SDS011;34289;48.572;13.378;2023-03-23T15:00:29;3.97;;;2.50;;
48487;SDS011;34289;48.572;13.378;2023-03-23T15:02:58;4.95;;;2.17;;
48487;SDS011;34289;48.572;13.378;2023-03-23T15:05:27;4.90;;;1.90;;
48487;SDS011;34289;48.572;13.378;2023-03-23T15:07:59;5.25;;;1.75;;
48487;SDS011;34289;48.572;13.378;2023-03-23T15:10:31;2.58;;;1.83;;
48487;SDS011;34289;48.572;13.378;2023-03-23T15:12:57;5.97;;;1.35;;
48487;SDS011;34289;48.572;13.378;2023-03-23T15:17:59;2.50;;;1.40;;
48487;SDS011;34289;48.572;13.378;2023-03-23T15:23:04;4.18;;;1.33;;
48487;SDS011;34289;48.572;13.378;2023-03-23T15:25:32;1.95;;;0.95;;
48487;SDS011;34289;48.572;13.378;2023-03-23T15:30:57;3.85;;;1.38;;
48487;SDS011;34289;48.572;13.378;2023-03-23T15:33:26;5.30;;;1.30;;
48487;SDS011;34289;48.572;13.378;2023-03-23T15:35:53;2.85;;;1.33;;
48487;SDS011;34289;48.572;13.378;2023-03-23T15:38:30;5.95;;;1.58;;
48487;SDS011;34289;48.572;13.378;2023-03-23T15:40:59;3.75;;;1.52;;
48487;SDS011;34289;48.572;13.378;2023-03-23T15:43:27;5.45;;;1.70;;
48487;SDS011;34289;48.572;13.378;2023-03-23T15:45:57;5.30;;;1.45;;
48487;SDS011;34289;48.572;13.378;2023-03-23T15:48:50;2.53;;;1.42;;
48487;SDS011;34289;48.572;13.378;2023-03-23T15:51:36;3.83;;;1.80;;
48487;SDS011;34289;48.572;13.378;2023-03-23T15:54:02;3.92;;;1.60;;
48487;SDS011;34289;48.572;13.378;2023-03-23T15:56:28;2.50;;;1.20;;
48487;SDS011;34289;48.572;13.378;2023-03-23T15:58:56;6.35;;;1.60;;
48487;SDS011;34289;48.572;13.378;2023-03-23T16:01:24;8.88;;;1.40;;
48487;SDS011;34289;48.572;13.378;2023-03-23T16:06:36;2.30;;;1.20;;
48487;SDS011;34289;48.572;13.378;2023-03-23T16:09:04;4.65;;;1.55;;
48487;SDS011;34289;48.572;13.378;2023-03-23T16:11:31;3.03;;;1.67;;
48487;SDS011;34289;48.572;13.378;2023-03-23T16:13:58;3.63;;;2.10;;
48487;SDS011;34289;48.572;13.378;2023-03-23T16:16:41;2.83;;;1.73;;
48487;SDS011;34289;48.572;13.378;2023-03-23T16:19:12;4.53;;;1.77;;
48487;SDS011;34289;48.572;13.378;2023-03-23T16:21:39;13.93;;;1.90;;
48487;SDS011;34289;48.572;13.378;2023-03-23T16:24:06;5.57;;;1.80;;
48487;SDS011;34289;48.572;13.378;2023-03-23T16:26:33;2.88;;;1.55;;
48487;SDS011;34289;48.572;13.378;2023-03-23T16:28:59;11.25;;;2.40;;
48487;SDS011;34289;48.572;13.378;2023-03-23T16:31:26;9.07;;;1.90;;
48487;SDS011;34289;48.572;13.378;2023-03-23T16:33:52;9.40;;;2.00;;
48487;SDS011;34289;48.572;13.378;2023-03-23T16:36:18;8.85;;;2.20;;
48487;SDS011;34289;48.572;13.378;2023-03-23T16:38:43;8.75;;;2.53;;
48487;SDS011;34289;48.572;13.378;2023-03-23T16:41:09;4.03;;;1.80;;
48487;SDS011;34289;48.572;13.378;2023-03-23T16:43:34;4.18;;;1.90;;
48487;SDS011;34289;48.572;13.378;2023-03-23T16:46:00;5.03;;;1.98;;
48487;SDS011;34289;48.572;13.378;2023-03-23T16:48:26;8.38;;;2.25;;
48487;SDS011;34289;48.572;13.378;2023-03-23T16:50:51;7.68;;;2.05;;
48487;SDS011;34289;48.572;13.378;2023-03-23T16:53:18;13.50;;;2.10;;
48487;SDS011;34289;48.572;13.378;2023-03-23T16:55:45;7.00;;;2.35;;
48487;SDS011;34289;48.572;13.378;2023-03-23T16:58:12;7.35;;;2.28;;
48487;SDS011;34289;48.572;13.378;2023-03-23T17:00:40;7.95;;;2.40;;
48487;SDS011;34289;48.572;13.378;2023-03-23T17:03:06;7.00;;;1.85;;
48487;SDS011;34289;48.572;13.378;2023-03-23T17:05:33;6.30;;;2.65;;